createdAt,value
2019-06-01T00:02:09.341Z,33.50
2019-06-01T00:04:38.641Z,28.40
2019-06-01T00:07:07.508Z,33.98
2019-06-01T00:09:36.177Z,31.57
2019-06-01T00:12:04.843Z,32.25
2019-06-01T00:14:33.540Z,35.55
2019-06-01T00:17:02.215Z,35.28
2019-06-01T00:19:30.889Z,43.92
2019-06-01T00:21:59.589Z,46.68
2019-06-01T00:24:28.255Z,45.43
2019-06-01T00:26:56.962Z,33.20
2019-06-01T00:29:25.653Z,32.10
2019-06-01T00:31:54.334Z,32.08
2019-06-01T00:34:23.041Z,28.95
2019-06-01T00:36:51.999Z,29.25
2019-06-01T00:39:20.779Z,30.65
2019-06-01T00:41:50.240Z,35.13
2019-06-01T00:44:18.940Z,33.83
2019-06-01T00:46:48.724Z,36.33
2019-06-01T00:49:17.491Z,34.30
2019-06-01T00:51:47.026Z,34.58
2019-06-01T00:54:15.737Z,33.55
2019-06-01T00:56:45.590Z,35.23
2019-06-01T00:59:14.397Z,33.45
2019-06-01T01:01:43.876Z,31.23
2019-06-01T01:04:12.745Z,28.87
2019-06-01T01:06:41.444Z,27.25
2019-06-01T01:09:10.154Z,32.00
2019-06-01T01:11:38.877Z,30.48
2019-06-01T01:14:07.690Z,30.25
2019-06-01T01:16:36.351Z,28.80
2019-06-01T01:19:06.503Z,28.23
2019-06-01T01:21:35.941Z,22.73
2019-06-01T01:24:04.920Z,25.90
2019-06-01T01:26:33.618Z,23.90
2019-06-01T01:29:02.330Z,27.95
2019-06-01T01:31:30.995Z,32.48
2019-06-01T01:33:59.686Z,32.88
2019-06-01T01:36:28.390Z,36.48
2019-06-01T01:38:58.242Z,36.53
2019-06-01T01:41:27.133Z,39.75
2019-06-01T01:43:56.557Z,38.40
2019-06-01T01:46:25.286Z,46.13
2019-06-01T01:48:54.332Z,43.17
2019-06-01T01:51:23.144Z,44.50
2019-06-01T01:53:53.011Z,40.67
2019-06-01T01:56:21.795Z,37.53
2019-06-01T01:58:50.498Z,40.15
2019-06-01T02:01:22.750Z,37.75
2019-06-01T02:03:51.427Z,32.75
2019-06-01T02:06:20.018Z,32.13
2019-06-01T02:08:48.707Z,33.25
2019-06-01T02:11:17.369Z,33.50
2019-06-01T02:13:46.071Z,45.40
2019-06-01T02:16:14.731Z,38.67
2019-06-01T02:18:43.451Z,44.90
2019-06-01T02:21:12.138Z,44.25
2019-06-01T02:23:40.846Z,49.60
2019-06-01T02:26:09.563Z,46.08
2019-06-01T02:28:38.276Z,47.43
2019-06-01T02:31:06.970Z,48.33
2019-06-01T02:33:35.640Z,39.30
2019-06-01T02:36:05.393Z,41.35
2019-06-01T02:38:34.200Z,40.33
2019-06-01T02:41:05.076Z,40.15
2019-06-01T02:43:33.670Z,39.30
2019-06-01T02:46:02.928Z,41.10
2019-06-01T02:48:32.912Z,41.20
2019-06-01T02:51:01.854Z,35.38
2019-06-01T02:53:30.729Z,40.73
2019-06-01T02:55:59.947Z,37.93
2019-06-01T02:58:28.671Z,40.78
2019-06-01T03:01:36.305Z,39.40
2019-06-01T03:04:08.347Z,41.65
2019-06-01T03:06:39.809Z,45.65
2019-06-01T03:09:09.261Z,44.25
2019-06-01T03:11:39.236Z,43.05
2019-06-01T03:14:09.698Z,39.67
2019-06-01T03:16:40.420Z,43.95
2019-06-01T03:19:09.629Z,34.70
2019-06-01T03:21:38.760Z,33.85
2019-06-01T03:24:09.891Z,33.23
2019-06-01T03:26:44.366Z,38.17
2019-06-01T03:29:19.585Z,39.20
2019-06-01T03:31:48.346Z,39.70
2019-06-01T03:34:17.084Z,42.55
2019-06-01T03:36:45.818Z,46.55
2019-06-01T03:39:14.575Z,44.73
2019-06-01T03:41:43.614Z,46.25
2019-06-01T03:44:12.998Z,43.90
2019-06-01T03:46:41.891Z,50.75
2019-06-01T03:49:11.853Z,47.05
2019-06-01T03:51:40.721Z,43.63
2019-06-01T03:54:10.128Z,44.38
2019-06-01T03:56:39.092Z,44.67
2019-06-01T03:59:07.781Z,45.78
2019-06-01T04:01:36.892Z,46.58
2019-06-01T04:04:07.137Z,49.98
2019-06-01T04:06:36.074Z,51.28
2019-06-01T04:09:07.748Z,42.27
2019-06-01T04:11:36.697Z,41.80
2019-06-01T04:14:05.942Z,39.42
2019-06-01T04:16:34.611Z,37.50
2019-06-01T04:19:03.780Z,43.68
2019-06-01T04:21:32.454Z,43.38
2019-06-01T04:24:01.869Z,43.28
2019-06-01T04:26:30.715Z,41.48
2019-06-01T04:28:59.475Z,43.00
2019-06-01T04:31:28.161Z,40.28
2019-06-01T04:33:56.898Z,42.40
2019-06-01T04:36:25.575Z,44.13
2019-06-01T04:38:54.243Z,38.98
2019-06-01T04:41:22.937Z,33.18
2019-06-01T04:43:51.666Z,30.40
2019-06-01T04:46:20.343Z,38.05
2019-06-01T04:48:49.006Z,42.10
2019-06-01T04:51:17.698Z,42.10
2019-06-01T04:53:46.362Z,40.28
2019-06-01T04:56:15.312Z,41.45
2019-06-01T04:58:44.011Z,41.68
2019-06-01T05:01:13.053Z,34.40
2019-06-01T05:03:41.835Z,37.23
2019-06-01T05:06:11.343Z,36.15
2019-06-01T05:08:40.080Z,37.33
2019-06-01T05:11:10.185Z,32.93
2019-06-01T05:13:39.370Z,31.82
2019-06-01T05:16:08.045Z,26.97
2019-06-01T05:18:36.719Z,25.40
2019-06-01T05:21:06.408Z,27.62
2019-06-01T05:23:35.232Z,23.07
2019-06-01T05:26:03.989Z,20.50
2019-06-01T05:28:32.671Z,18.42
2019-06-01T05:31:01.350Z,18.77
2019-06-01T05:33:37.478Z,20.80
2019-06-01T05:36:00.444Z,18.87
2019-06-01T05:38:29.124Z,18.17
2019-06-01T05:40:57.796Z,19.55
2019-06-01T05:43:26.477Z,19.12
2019-06-01T05:45:55.137Z,20.65
2019-06-01T05:48:28.504Z,17.60
2019-06-01T05:50:54.245Z,16.90
2019-06-01T05:53:23.149Z,15.23
2019-06-01T05:55:51.863Z,18.15
2019-06-01T05:58:21.782Z,18.07
2019-06-01T06:00:50.598Z,16.70
2019-06-01T06:03:22.265Z,18.10
2019-06-01T06:05:49.674Z,13.22
2019-06-01T06:08:18.359Z,11.55
2019-06-01T06:10:47.054Z,14.68
2019-06-01T06:13:15.715Z,15.60
2019-06-01T06:15:44.407Z,15.90
2019-06-01T06:18:13.687Z,14.95
2019-06-01T06:20:42.517Z,15.35
2019-06-01T06:23:12.212Z,13.93
2019-06-01T06:25:41.497Z,13.22
2019-06-01T06:28:10.275Z,14.15
2019-06-01T06:30:38.981Z,14.55
2019-06-01T06:33:07.668Z,11.90
2019-06-01T06:35:36.354Z,12.85
2019-06-01T06:38:05.059Z,12.25
2019-06-01T06:40:33.731Z,14.20
2019-06-01T06:43:02.410Z,12.65
2019-06-01T06:45:31.100Z,13.22
2019-06-01T06:48:00.108Z,11.93
2019-06-01T06:50:28.784Z,12.68
2019-06-01T06:52:57.472Z,11.68
2019-06-01T06:55:26.256Z,13.43
2019-06-01T06:57:54.868Z,12.82
2019-06-01T07:00:24.811Z,12.13
2019-06-01T07:02:53.645Z,13.18
2019-06-01T07:05:23.481Z,11.08
2019-06-01T07:07:52.190Z,9.93
2019-06-01T07:10:22.085Z,10.00
2019-06-01T07:12:50.933Z,9.93
2019-06-01T07:15:19.671Z,10.55
2019-06-01T07:17:48.338Z,10.48
2019-06-01T07:20:17.201Z,10.50
2019-06-01T07:22:45.842Z,8.88
2019-06-01T07:25:14.659Z,9.68
2019-06-01T07:27:43.332Z,9.83
2019-06-01T07:30:12.193Z,8.80
2019-06-01T07:32:40.885Z,9.00
2019-06-01T07:35:09.704Z,8.80
2019-06-01T07:37:38.375Z,8.80
2019-06-01T07:40:13.066Z,9.30
2019-06-01T07:42:38.965Z,8.75
2019-06-01T07:45:08.056Z,7.95
2019-06-01T07:47:36.710Z,8.60
2019-06-01T07:50:06.014Z,7.12
2019-06-01T07:52:34.698Z,7.50
2019-06-01T07:55:03.466Z,6.53
2019-06-01T07:57:32.150Z,7.08
2019-06-01T08:00:00.808Z,7.00
2019-06-01T08:02:30.757Z,6.42
2019-06-01T08:04:59.636Z,6.10
2019-06-01T08:07:29.234Z,7.67
2019-06-01T08:09:58.101Z,6.58
2019-06-01T08:12:27.509Z,5.97
2019-06-01T08:14:56.214Z,6.22
2019-06-01T08:17:25.974Z,5.42
2019-06-01T08:19:54.811Z,5.45
2019-06-01T08:22:23.860Z,5.78
2019-06-01T08:24:52.629Z,5.58
2019-06-01T08:27:22.398Z,5.65
2019-06-01T08:29:51.220Z,6.17
2019-06-01T08:32:19.900Z,5.78
2019-06-01T08:34:48.556Z,5.87
2019-06-01T08:37:17.251Z,5.50
2019-06-01T08:39:45.914Z,5.40
2019-06-01T08:42:14.575Z,5.00
2019-06-01T08:44:43.260Z,5.42
2019-06-01T08:47:12.005Z,5.30
2019-06-01T08:49:40.707Z,5.03
2019-06-01T08:52:09.381Z,3.90
2019-06-01T08:54:38.039Z,3.90
2019-06-01T08:57:06.699Z,4.15
2019-06-01T08:59:35.382Z,3.62
2019-06-01T09:02:04.191Z,3.75
2019-06-01T09:04:32.870Z,3.75
2019-06-01T09:07:01.542Z,3.60
2019-06-01T09:09:31.014Z,4.08
2019-06-01T09:11:59.749Z,3.70
2019-06-01T09:14:29.193Z,3.37
2019-06-01T09:16:57.950Z,3.45
2019-06-01T09:19:27.341Z,3.40
2019-06-01T09:21:56.059Z,2.72
2019-06-01T09:24:25.772Z,3.17
2019-06-01T09:26:54.513Z,3.08
2019-06-01T09:29:23.196Z,3.35
2019-06-01T09:31:51.913Z,3.70
2019-06-01T09:34:20.567Z,3.58
2019-06-01T09:36:49.222Z,3.17
2019-06-01T09:39:17.911Z,3.25
2019-06-01T09:41:46.563Z,3.12
2019-06-01T09:44:15.258Z,4.15
2019-06-01T09:46:43.911Z,3.27
2019-06-01T09:49:12.573Z,3.80
2019-06-01T09:51:41.274Z,3.42
2019-06-01T09:54:09.922Z,3.35
2019-06-01T09:56:39.899Z,3.70
2019-06-01T09:59:08.801Z,3.20
2019-06-01T10:01:38.746Z,2.90
2019-06-01T10:04:09.180Z,3.42
2019-06-01T10:06:38.705Z,2.65
2019-06-01T10:09:09.093Z,2.55
2019-06-01T10:11:38.094Z,2.70
2019-06-01T10:14:07.045Z,2.95
2019-06-01T10:16:36.787Z,3.30
2019-06-01T10:19:05.670Z,3.10
2019-06-01T10:21:34.344Z,2.55
2019-06-01T10:24:03.073Z,2.85
2019-06-01T10:26:31.707Z,2.90
2019-06-01T10:29:00.406Z,2.47
2019-06-01T10:31:30.438Z,3.12
2019-06-01T10:33:59.253Z,3.33
2019-06-01T10:36:28.115Z,3.33
2019-06-01T10:38:56.779Z,3.37
2019-06-01T10:41:25.466Z,2.98
2019-06-01T10:43:54.132Z,2.77
2019-06-01T10:46:22.797Z,2.47
2019-06-01T10:48:51.550Z,2.62
2019-06-01T10:51:20.184Z,3.12
2019-06-01T10:53:48.853Z,3.05
2019-06-01T10:56:17.725Z,3.05
2019-06-01T10:58:59.247Z,2.83
2019-06-01T11:01:16.804Z,2.90
2019-06-01T11:03:45.463Z,2.72
2019-06-01T11:06:14.126Z,2.62
2019-06-01T11:08:43.163Z,2.80
2019-06-01T11:11:12.117Z,2.77
2019-06-01T11:13:41.146Z,2.20
2019-06-01T11:16:09.927Z,2.45
2019-06-01T11:18:39.620Z,2.00
2019-06-01T11:21:08.461Z,2.17
2019-06-01T11:23:37.473Z,2.65
2019-06-01T11:26:06.337Z,2.40
2019-06-01T11:28:36.175Z,2.50
2019-06-01T11:31:05.460Z,2.55
2019-06-01T11:33:34.284Z,2.35
2019-06-01T11:36:03.081Z,2.83
2019-06-01T11:38:31.739Z,2.22
2019-06-01T11:41:00.435Z,2.72
2019-06-01T11:43:29.093Z,2.50
2019-06-01T11:45:58.021Z,2.58
2019-06-01T11:48:26.692Z,2.40
2019-06-01T11:50:55.358Z,2.33
2019-06-01T11:53:24.050Z,2.30
2019-06-01T11:55:52.723Z,2.30
2019-06-01T11:58:21.419Z,2.22
2019-06-01T12:00:50.075Z,1.98
2019-06-01T12:03:18.763Z,2.30
2019-06-01T12:05:47.455Z,2.67
2019-06-01T12:08:16.102Z,2.40
2019-06-01T12:10:45.310Z,2.25
2019-06-01T12:13:14.037Z,2.15
2019-06-01T12:15:42.702Z,2.35
2019-06-01T12:18:11.363Z,1.55
2019-06-01T12:20:40.705Z,2.70
2019-06-01T12:23:09.619Z,2.45
2019-06-01T12:25:38.368Z,2.27
2019-06-01T12:28:07.025Z,2.20
2019-06-01T12:30:35.723Z,2.10
2019-06-01T12:33:04.508Z,2.47
2019-06-01T12:35:33.166Z,2.12
2019-06-01T12:38:06.418Z,2.42
2019-06-01T12:40:32.266Z,2.08
2019-06-01T12:43:00.984Z,2.20
2019-06-01T12:45:29.648Z,2.58
2019-06-01T12:47:58.777Z,2.02
2019-06-01T12:50:27.555Z,1.95
2019-06-01T12:52:56.242Z,1.87
2019-06-01T12:55:24.963Z,1.75
2019-06-01T12:57:53.621Z,1.92
2019-06-01T13:00:22.407Z,1.80
2019-06-01T13:03:03.406Z,1.90
2019-06-01T13:05:21.571Z,2.30
2019-06-01T13:07:59.771Z,2.15
2019-06-01T13:10:20.829Z,1.90
2019-06-01T13:12:49.531Z,2.05
2019-06-01T13:15:19.017Z,1.90
2019-06-01T13:17:47.708Z,2.52
2019-06-01T13:20:16.511Z,2.00
2019-06-01T13:22:45.626Z,2.00
2019-06-01T13:25:14.938Z,2.15
2019-06-01T13:27:44.255Z,2.10
2019-06-01T13:30:13.719Z,2.47
2019-06-01T13:32:42.586Z,1.90
2019-06-01T13:35:11.611Z,2.27
2019-06-01T13:37:40.322Z,2.10
2019-06-01T13:40:09.326Z,2.17
2019-06-01T13:42:37.987Z,2.12
2019-06-01T13:45:06.865Z,1.60
2019-06-01T13:47:35.532Z,1.90
2019-06-01T13:50:06.624Z,2.37
2019-06-01T13:52:35.669Z,1.70
2019-06-01T13:55:04.832Z,2.12
2019-06-01T13:57:33.495Z,1.92
2019-06-01T14:00:02.166Z,2.30
2019-06-01T14:02:30.835Z,1.70
2019-06-01T14:04:59.540Z,1.52
2019-06-01T14:07:28.235Z,1.70
2019-06-01T14:09:56.922Z,1.52
2019-06-01T14:12:25.582Z,1.87
2019-06-01T14:14:55.525Z,2.00
2019-06-01T14:17:24.307Z,1.47
2019-06-01T14:19:53.809Z,1.75
2019-06-01T14:22:22.627Z,1.47
2019-06-01T14:25:07.274Z,1.77
2019-06-01T14:27:21.746Z,1.70
2019-06-01T14:29:50.410Z,1.80
2019-06-01T14:32:22.487Z,1.72
2019-06-01T14:34:51.770Z,1.75
2019-06-01T14:37:21.739Z,2.00
2019-06-01T14:39:50.854Z,1.60
2019-06-01T14:42:19.650Z,1.70
2019-06-01T14:44:49.297Z,1.92
2019-06-01T14:47:18.804Z,1.72
2019-06-01T14:49:47.646Z,1.90
2019-06-01T14:52:16.320Z,1.70
2019-06-01T14:54:44.967Z,1.80
2019-06-01T14:57:13.750Z,1.98
2019-06-01T14:59:42.508Z,1.95
2019-06-01T15:02:11.174Z,1.65
2019-06-01T15:04:39.864Z,2.40
2019-06-01T15:07:08.523Z,2.08
2019-06-01T15:09:37.181Z,1.75
2019-06-01T15:12:06.055Z,2.05
2019-06-01T15:14:34.740Z,1.87
2019-06-01T15:17:03.490Z,1.90
2019-06-01T15:19:32.308Z,2.15
2019-06-01T15:22:03.478Z,2.58
2019-06-01T15:24:32.322Z,1.40
2019-06-01T15:27:01.006Z,1.57
2019-06-01T15:29:29.664Z,2.17
2019-06-01T15:31:58.349Z,1.90
2019-06-01T15:34:27.097Z,1.50
2019-06-01T15:36:55.782Z,1.80
2019-06-01T15:39:25.540Z,1.72
2019-06-01T15:41:55.242Z,1.80
2019-06-01T15:44:23.941Z,1.75
2019-06-01T15:46:53.742Z,2.00
2019-06-01T15:49:22.838Z,1.75
2019-06-01T15:51:51.836Z,1.85
2019-06-01T15:54:20.616Z,1.90
2019-06-01T15:56:49.304Z,1.80
2019-06-01T15:59:17.958Z,1.60
2019-06-01T16:01:46.653Z,1.90
2019-06-01T16:04:15.345Z,1.62
2019-06-01T16:06:44.018Z,1.95
2019-06-01T16:09:12.683Z,1.50
2019-06-01T16:11:41.347Z,2.05
2019-06-01T16:14:10.005Z,2.00
2019-06-01T16:16:38.695Z,1.50
2019-06-01T16:19:08.026Z,1.67
2019-06-01T16:21:36.908Z,1.72
2019-06-01T16:24:06.143Z,1.98
2019-06-01T16:26:34.974Z,1.90
2019-06-01T16:29:04.985Z,1.90
2019-06-01T16:31:33.869Z,2.02
2019-06-01T16:34:02.878Z,1.62
2019-06-01T16:36:31.718Z,1.80
2019-06-01T16:39:04.527Z,1.85
2019-06-01T16:41:30.803Z,1.80
2019-06-01T16:43:59.583Z,1.80
2019-06-01T16:46:28.228Z,1.65
2019-06-01T16:48:57.469Z,2.00
2019-06-01T16:51:26.324Z,2.00
2019-06-01T16:53:55.756Z,1.77
2019-06-01T16:56:24.536Z,2.15
2019-06-01T16:58:53.183Z,1.70
2019-06-01T17:01:21.860Z,1.57
2019-06-01T17:03:50.534Z,1.95
2019-06-01T17:06:19.273Z,1.90
2019-06-01T17:08:47.949Z,2.17
2019-06-01T17:11:16.647Z,1.75
2019-06-01T17:13:45.300Z,2.02
2019-06-01T17:16:13.973Z,1.82
2019-06-01T17:18:42.661Z,1.87
2019-06-01T17:21:11.317Z,2.25
2019-06-01T17:23:39.971Z,2.00
2019-06-01T17:26:08.970Z,2.30
2019-06-01T17:28:37.681Z,2.17
2019-06-01T17:31:06.508Z,2.27
2019-06-01T17:33:35.158Z,2.00
2019-06-01T17:36:04.739Z,2.10
2019-06-01T17:38:33.492Z,2.22
2019-06-01T17:41:02.285Z,2.80
2019-06-01T17:43:30.876Z,2.27
2019-06-01T17:46:00.467Z,3.33
2019-06-01T17:48:29.487Z,2.35
2019-06-01T17:50:58.164Z,2.10
2019-06-01T17:53:26.892Z,1.85
2019-06-01T17:55:55.565Z,2.02
2019-06-01T17:58:24.497Z,1.87
2019-06-01T18:00:53.249Z,2.20
2019-06-01T18:03:21.985Z,2.10
2019-06-01T18:05:50.703Z,2.08
2019-06-01T18:08:19.533Z,2.33
2019-06-01T18:10:54.298Z,2.50
2019-06-01T18:13:18.645Z,2.60
2019-06-01T18:15:49.991Z,2.17
2019-06-01T18:18:17.922Z,2.12
2019-06-01T18:20:46.776Z,2.47
2019-06-01T18:23:15.426Z,2.77
2019-06-01T18:25:44.247Z,2.90
2019-06-01T18:28:19.009Z,2.92
2019-06-01T18:30:43.544Z,2.67
2019-06-01T18:33:13.179Z,2.62
2019-06-01T18:35:42.085Z,2.90
2019-06-01T18:38:12.763Z,2.60
2019-06-01T18:40:41.280Z,2.85
2019-06-01T18:43:14.246Z,2.92
2019-06-01T18:48:12.250Z,2.90
2019-06-01T18:50:41.095Z,2.62
2019-06-01T18:53:10.115Z,2.62
2019-06-01T18:55:38.814Z,2.55
2019-06-01T18:58:08.259Z,2.83
2019-06-01T19:00:39.581Z,3.30
2019-06-01T19:03:09.008Z,3.60
2019-06-01T19:05:37.873Z,3.60
2019-06-01T19:08:07.191Z,3.67
2019-06-01T19:10:36.006Z,3.92
2019-06-01T19:13:05.602Z,4.25
2019-06-01T19:15:34.548Z,4.05
2019-06-01T19:18:03.210Z,3.67
2019-06-01T19:20:33.256Z,3.92
2019-06-01T19:23:02.160Z,3.83
2019-06-01T19:25:30.852Z,4.15
2019-06-01T19:27:59.513Z,4.42
2019-06-01T19:30:42.070Z,4.55
2019-06-01T19:33:14.226Z,5.23
2019-06-01T19:35:41.857Z,4.92
2019-06-01T19:38:11.399Z,5.12
2019-06-01T19:40:41.205Z,4.17
2019-06-01T19:43:11.423Z,5.08
2019-06-01T19:45:40.307Z,5.30
2019-06-01T19:48:10.361Z,5.00
2019-06-01T19:50:39.229Z,4.92
2019-06-01T19:53:08.720Z,5.03
2019-06-01T19:55:37.575Z,5.70
2019-06-01T19:58:06.305Z,5.35
2019-06-01T20:00:35.078Z,5.35
2019-06-01T20:03:03.846Z,5.45
2019-06-01T20:05:32.707Z,5.47
2019-06-01T20:08:01.376Z,5.67
2019-06-01T20:10:30.092Z,5.17
2019-06-01T20:12:58.763Z,5.42
2019-06-01T20:15:27.418Z,6.12
2019-06-01T20:17:56.103Z,6.00
2019-06-01T20:20:26.292Z,5.15
2019-06-01T20:22:54.966Z,5.53
2019-06-01T20:25:23.625Z,6.30
2019-06-01T20:27:52.321Z,5.85
2019-06-01T20:30:22.189Z,6.33
2019-06-01T20:32:50.963Z,6.53
2019-06-01T20:35:20.144Z,6.78
2019-06-01T20:37:48.896Z,6.42
2019-06-01T20:40:18.396Z,6.70
2019-06-01T20:42:47.267Z,8.08
2019-06-01T20:45:16.841Z,7.45
2019-06-01T20:47:45.617Z,7.28
2019-06-01T20:50:14.886Z,7.70
2019-06-01T20:52:43.692Z,7.85
2019-06-01T20:55:12.867Z,7.72
2019-06-01T20:57:41.612Z,7.47
2019-06-01T21:00:11.315Z,8.25
2019-06-01T21:02:39.964Z,6.80
2019-06-01T21:05:09.079Z,8.40
2019-06-01T21:07:37.816Z,6.87
2019-06-01T21:10:08.116Z,8.83
2019-06-01T21:12:44.619Z,7.90
2019-06-01T21:15:07.938Z,8.75
2019-06-01T21:17:36.612Z,7.78
2019-06-01T21:20:06.832Z,8.05
2019-06-01T21:22:35.483Z,8.48
2019-06-01T21:25:04.624Z,8.43
2019-06-01T21:27:33.311Z,7.33
2019-06-01T21:30:02.035Z,8.60
2019-06-01T21:32:30.634Z,9.03
2019-06-01T21:34:59.403Z,9.05
2019-06-01T21:37:28.077Z,9.73
2019-06-01T21:39:56.753Z,9.15
2019-06-01T21:42:26.105Z,9.33
2019-06-01T21:44:54.892Z,10.10
2019-06-01T21:47:23.910Z,9.83
2019-06-01T21:49:52.611Z,10.28
2019-06-01T21:52:22.075Z,9.68
2019-06-01T21:54:50.830Z,9.63
2019-06-01T21:57:20.171Z,11.43
2019-06-01T21:59:48.992Z,10.45
2019-06-01T22:02:18.713Z,10.08
2019-06-01T22:04:47.473Z,9.33
2019-06-01T22:07:17.308Z,10.28
2019-06-01T22:09:46.227Z,9.88
2019-06-01T22:12:14.877Z,9.78
2019-06-01T22:14:43.543Z,9.90
2019-06-01T22:17:12.778Z,11.33
2019-06-01T22:19:41.518Z,10.95
2019-06-01T22:22:10.221Z,11.85
2019-06-01T22:24:38.907Z,11.12
2019-06-01T22:27:07.608Z,10.20
2019-06-01T22:29:36.241Z,10.93
2019-06-01T22:32:04.900Z,10.03
2019-06-01T22:34:33.580Z,11.45
2019-06-01T22:37:02.269Z,12.13
2019-06-01T22:39:30.955Z,13.62
2019-06-01T22:41:59.628Z,10.63
2019-06-01T22:44:28.448Z,10.53
2019-06-01T22:46:57.062Z,12.23
2019-06-01T22:49:26.843Z,11.83
2019-06-01T22:51:55.621Z,11.85
2019-06-01T22:54:25.138Z,12.07
2019-06-01T22:56:53.900Z,10.45
2019-06-01T22:59:22.599Z,10.28
2019-06-01T23:01:51.272Z,11.43
2019-06-01T23:04:20.960Z,11.30
2019-06-01T23:06:49.698Z,11.12
2019-06-01T23:09:18.410Z,11.40
2019-06-01T23:11:47.142Z,11.33
2019-06-01T23:14:15.818Z,12.65
2019-06-01T23:16:44.491Z,13.28
2019-06-01T23:19:13.151Z,12.90
2019-06-01T23:21:41.837Z,13.68
2019-06-01T23:24:10.526Z,11.68
2019-06-01T23:26:39.189Z,11.20
2019-06-01T23:29:07.872Z,13.38
2019-06-01T23:31:36.544Z,14.58
2019-06-01T23:34:05.402Z,14.63
2019-06-01T23:36:34.088Z,14.13
2019-06-01T23:39:03.254Z,14.13
2019-06-01T23:41:32.917Z,13.30
2019-06-01T23:44:11.965Z,13.53
2019-06-01T23:46:33.450Z,13.62
2019-06-01T23:49:02.193Z,13.03
2019-06-01T23:51:31.874Z,13.85
2019-06-01T23:54:00.651Z,15.75
2019-06-01T23:56:29.738Z,15.88
2019-06-01T23:58:58.603Z,16.20
